createdAt,value
2022-10-19T00:00:38.813Z,83.96
2022-10-19T00:07:02.535Z,83.49
2022-10-19T00:10:13.138Z,83.52
2022-10-19T00:13:21.357Z,83.43
2022-10-19T00:16:34.017Z,83.90
2022-10-19T00:19:42.504Z,83.65
2022-10-19T00:22:51.756Z,83.88
2022-10-19T00:26:01.678Z,84.93
2022-10-19T00:29:12.295Z,84.97
2022-10-19T00:32:20.807Z,85.11
2022-10-19T00:35:29.278Z,84.51
2022-10-19T00:38:37.697Z,84.71
2022-10-19T00:41:49.120Z,85.22
2022-10-19T00:45:07.195Z,85.12
2022-10-19T00:48:22.286Z,85.17
2022-10-19T00:51:33.509Z,85.37
2022-10-19T00:54:45.114Z,84.88
2022-10-19T00:57:55.520Z,84.35
2022-10-19T01:01:06.778Z,85.89
2022-10-19T01:04:16.246Z,85.35
2022-10-19T01:07:26.848Z,85.92
2022-10-19T01:10:48.421Z,85.66
2022-10-19T01:14:28.963Z,85.49
2022-10-19T01:17:54.472Z,85.81
2022-10-19T01:21:26.106Z,85.44
2022-10-19T01:25:00.620Z,86.46
2022-10-19T01:28:33.739Z,86.02
2022-10-19T01:31:53.761Z,85.85
2022-10-19T01:35:11.329Z,86.19
2022-10-19T01:38:35.003Z,86.30
2022-10-19T01:41:52.112Z,85.60
2022-10-19T01:45:07.246Z,86.63
2022-10-19T01:48:24.457Z,86.39
2022-10-19T01:51:39.329Z,86.76
2022-10-19T01:54:52.933Z,86.76
2022-10-19T01:58:09.842Z,86.01
2022-10-19T02:01:23.726Z,86.76
2022-10-19T02:04:35.345Z,86.18
2022-10-19T02:07:49.883Z,86.75
2022-10-19T02:11:02.515Z,86.62
2022-10-19T02:14:16.479Z,86.76
2022-10-19T02:17:32.063Z,87.48
2022-10-19T02:20:41.585Z,87.09
2022-10-19T02:23:51.894Z,86.38
2022-10-19T02:27:05.416Z,86.28
2022-10-19T02:30:18.493Z,85.75
2022-10-19T02:33:27.275Z,84.93
2022-10-19T02:36:37.123Z,84.03
2022-10-19T02:39:45.728Z,84.39
2022-10-19T02:43:01.910Z,85.09
2022-10-19T02:46:18.555Z,85.50
2022-10-19T02:49:28.604Z,85.24
2022-10-19T02:52:39.742Z,85.92
2022-10-19T02:55:50.912Z,84.96
2022-10-19T02:58:59.181Z,85.50
2022-10-19T03:02:07.458Z,85.55
2022-10-19T03:05:15.788Z,85.27
2022-10-19T03:08:25.462Z,84.08
2022-10-19T03:11:33.773Z,84.38
2022-10-19T03:14:42.181Z,83.89
2022-10-19T03:17:54.309Z,83.87
2022-10-19T03:21:08.986Z,83.71
2022-10-19T03:24:18.857Z,83.88
2022-10-19T03:27:27.308Z,83.73
2022-10-19T03:30:35.762Z,83.67
2022-10-19T03:33:44.024Z,83.48
2022-10-19T03:36:52.329Z,83.22
2022-10-19T03:40:02.427Z,83.26
2022-10-19T03:43:10.612Z,83.46
2022-10-19T03:46:19.579Z,83.69
2022-10-19T03:49:27.755Z,83.75
2022-10-19T03:52:35.943Z,83.21
2022-10-19T03:55:45.476Z,83.02
2022-10-19T03:58:56.302Z,83.39
2022-10-19T04:02:05.047Z,83.35
2022-10-19T04:05:13.586Z,83.26
2022-10-19T04:08:21.757Z,82.99
2022-10-19T04:11:33.859Z,83.13
2022-10-19T04:14:56.200Z,84.35
2022-10-19T04:18:05.932Z,83.94
2022-10-19T04:21:24.195Z,85.26
2022-10-19T04:24:32.738Z,85.40
2022-10-19T04:27:42.781Z,84.70
2022-10-19T04:30:51.216Z,85.47
2022-10-19T04:33:59.453Z,84.95
2022-10-19T04:37:07.915Z,84.75
2022-10-19T04:40:16.572Z,85.38
2022-10-19T04:43:26.232Z,85.63
2022-10-19T04:46:34.790Z,86.09
2022-10-19T04:49:43.269Z,85.19
2022-10-19T04:52:51.780Z,85.16
2022-10-19T04:56:00.510Z,84.00
2022-10-19T04:59:11.671Z,84.73
2022-10-19T05:02:20.184Z,84.99
2022-10-19T05:05:28.672Z,84.84
2022-10-19T05:08:38.051Z,84.87
2022-10-19T05:11:46.264Z,84.81
2022-10-19T05:14:56.086Z,84.50
2022-10-19T05:18:04.575Z,84.95
2022-10-19T05:21:15.290Z,84.72
2022-10-19T05:24:23.993Z,84.85
2022-10-19T05:27:32.719Z,84.53
2022-10-19T05:30:46.672Z,84.13
2022-10-19T05:33:57.852Z,84.11
2022-10-19T05:37:06.114Z,84.98
2022-10-19T05:40:14.274Z,85.17
2022-10-19T05:43:22.464Z,85.51
2022-10-19T05:46:33.666Z,86.04
2022-10-19T05:49:41.953Z,86.89
2022-10-19T05:52:50.105Z,86.25
2022-10-19T05:55:59.127Z,86.14
2022-10-19T05:59:09.869Z,86.00
2022-10-19T06:02:19.546Z,85.78
2022-10-19T06:05:28.139Z,86.28
2022-10-19T06:08:37.383Z,85.84
2022-10-19T06:11:46.398Z,85.97
2022-10-19T06:14:55.678Z,86.13
2022-10-19T06:18:07.655Z,85.47
2022-10-19T06:21:19.014Z,85.69
2022-10-19T06:24:27.287Z,85.82
2022-10-19T06:27:36.409Z,85.55
2022-10-19T06:30:45.176Z,85.17
2022-10-19T06:33:55.823Z,84.59
2022-10-19T06:37:04.229Z,84.38
2022-10-19T06:40:13.303Z,84.57
2022-10-19T06:43:21.571Z,84.22
2022-10-19T06:46:30.020Z,83.68
2022-10-19T06:49:39.857Z,83.04
2022-10-19T06:52:48.860Z,82.96
2022-10-19T06:55:59.949Z,82.86
2022-10-19T06:59:08.465Z,82.73
2022-10-19T07:02:16.894Z,81.78
2022-10-19T07:05:26.827Z,81.27
2022-10-19T07:08:37.559Z,80.33
2022-10-19T07:11:46.371Z,81.12
2022-10-19T07:14:55.628Z,80.75
2022-10-19T07:18:04.030Z,80.71
2022-10-19T07:21:16.985Z,78.66
2022-10-19T07:24:26.220Z,79.17
2022-10-19T07:27:40.131Z,78.70
2022-10-19T07:30:48.738Z,78.13
2022-10-19T07:33:58.978Z,77.88
2022-10-19T07:37:08.762Z,78.02
2022-10-19T07:40:17.071Z,78.05
2022-10-19T07:43:25.443Z,77.86
2022-10-19T07:46:35.812Z,77.97
2022-10-19T07:49:44.178Z,77.87
2022-10-19T07:52:54.885Z,77.81
2022-10-19T07:56:09.905Z,76.89
2022-10-19T07:59:18.165Z,76.06
2022-10-19T08:02:30.899Z,76.78
2022-10-19T08:05:47.826Z,76.68
2022-10-19T08:08:58.023Z,76.44
2022-10-19T08:12:07.325Z,76.98
2022-10-19T08:15:15.906Z,77.62
2022-10-19T08:18:24.127Z,77.27
2022-10-19T08:21:32.665Z,77.66
2022-10-19T08:24:42.455Z,78.66
2022-10-19T08:27:51.320Z,79.28
2022-10-19T08:30:59.827Z,78.58
2022-10-19T08:34:09.329Z,78.30
2022-10-19T08:37:26.284Z,78.17
2022-10-19T08:40:48.551Z,76.45
2022-10-19T08:44:35.361Z,76.40
2022-10-19T08:48:03.241Z,77.00
2022-10-19T08:51:14.689Z,75.59
2022-10-19T08:54:24.048Z,74.82
2022-10-19T08:57:49.966Z,74.85
2022-10-19T09:01:08.479Z,74.62
2022-10-19T09:04:25.549Z,75.65
2022-10-19T09:07:45.476Z,75.53
2022-10-19T09:10:57.451Z,74.82
2022-10-19T09:14:17.539Z,73.50
2022-10-19T09:17:26.147Z,74.04
2022-10-19T09:20:42.429Z,74.83
2022-10-19T09:24:03.563Z,75.56
2022-10-19T09:27:22.717Z,76.33
2022-10-19T09:30:39.984Z,76.35
2022-10-19T09:33:57.210Z,75.93
2022-10-19T09:37:06.168Z,76.08
2022-10-19T09:40:19.490Z,76.04
2022-10-19T09:43:28.378Z,75.22
2022-10-19T09:46:52.412Z,73.85
2022-10-19T09:50:20.627Z,73.91
2022-10-19T09:53:31.338Z,73.79
2022-10-19T09:56:40.716Z,73.97
2022-10-19T09:59:53.570Z,74.78
2022-10-19T10:03:03.280Z,75.81
2022-10-19T10:06:17.246Z,77.23
2022-10-19T10:09:29.988Z,76.16
2022-10-19T10:12:41.345Z,76.34
2022-10-19T10:15:55.492Z,75.82
2022-10-19T10:19:09.938Z,75.10
2022-10-19T10:22:28.192Z,74.74
2022-10-19T10:25:37.899Z,74.88
2022-10-19T10:28:51.968Z,74.37
2022-10-19T10:32:07.217Z,74.61
2022-10-19T10:35:25.676Z,76.06
2022-10-19T10:38:38.128Z,74.64
2022-10-19T10:41:50.310Z,74.50
2022-10-19T10:45:00.893Z,74.21
2022-10-19T10:48:27.982Z,74.20
2022-10-19T10:51:42.346Z,74.05
2022-10-19T10:55:03.606Z,74.58
2022-10-19T10:58:24.261Z,75.09
2022-10-19T11:01:41.633Z,74.24
2022-10-19T11:04:57.414Z,73.43
2022-10-19T11:08:19.839Z,73.29
2022-10-19T11:11:37.412Z,72.79
2022-10-19T11:14:52.285Z,72.51
2022-10-19T11:18:18.075Z,72.52
2022-10-19T11:21:38.429Z,73.16
2022-10-19T11:25:28.493Z,72.91
2022-10-19T11:28:55.370Z,73.19
2022-10-19T11:32:05.705Z,72.61
2022-10-19T11:35:35.604Z,71.26
2022-10-19T11:39:01.766Z,71.11
2022-10-19T11:42:22.272Z,71.23
2022-10-19T11:45:48.525Z,72.34
2022-10-19T11:49:23.930Z,72.65
2022-10-19T11:52:46.527Z,71.76
2022-10-19T11:56:04.790Z,72.60
2022-10-19T11:59:30.748Z,73.17
2022-10-19T12:03:26.041Z,72.34
2022-10-19T12:06:52.501Z,70.64
2022-10-19T12:10:18.122Z,71.22
2022-10-19T12:13:39.463Z,71.22
2022-10-19T12:16:57.419Z,70.34
2022-10-19T12:20:21.435Z,70.21
2022-10-19T12:23:35.682Z,70.98
2022-10-19T12:26:47.203Z,71.88
2022-10-19T12:29:59.625Z,71.96
2022-10-19T12:33:21.968Z,70.61
2022-10-19T12:36:43.669Z,69.71
2022-10-19T12:39:59.725Z,70.51
2022-10-19T12:43:18.584Z,71.23
2022-10-19T12:46:39.884Z,71.79
2022-10-19T12:49:53.631Z,72.14
2022-10-19T12:53:02.312Z,71.74
2022-10-19T12:56:18.919Z,71.30
2022-10-19T12:59:31.478Z,71.18
2022-10-19T13:02:43.160Z,70.69
2022-10-19T13:06:00.709Z,70.26
2022-10-19T13:09:24.339Z,69.43
2022-10-19T13:12:49.045Z,69.08
2022-10-19T13:15:58.391Z,69.40
2022-10-19T13:19:22.167Z,68.50
2022-10-19T13:22:32.550Z,67.67
2022-10-19T13:25:42.280Z,68.32
2022-10-19T13:28:57.235Z,67.87
2022-10-19T13:32:37.771Z,67.45
2022-10-19T13:35:48.244Z,66.97
2022-10-19T13:39:16.460Z,66.45
2022-10-19T13:42:28.391Z,65.93
2022-10-19T13:45:38.440Z,65.42
2022-10-19T13:49:36.672Z,64.60
2022-10-19T13:53:26.001Z,64.61
2022-10-19T13:56:59.983Z,64.21
2022-10-19T14:00:19.724Z,64.27
2022-10-19T14:03:47.930Z,63.65
2022-10-19T14:07:01.871Z,63.81
2022-10-19T14:10:17.907Z,64.67
2022-10-19T14:13:27.896Z,65.71
2022-10-19T14:16:36.635Z,66.97
2022-10-19T14:19:48.042Z,67.61
2022-10-19T14:22:56.427Z,67.78
2022-10-19T14:26:11.586Z,68.32
2022-10-19T14:29:22.244Z,68.40
2022-10-19T14:32:36.624Z,69.14
2022-10-19T14:35:54.442Z,68.28
2022-10-19T14:39:03.294Z,68.32
2022-10-19T14:42:12.879Z,68.77
2022-10-19T14:45:26.207Z,69.09
2022-10-19T14:48:36.909Z,68.92
2022-10-19T14:51:51.289Z,68.70
2022-10-19T14:55:10.571Z,67.79
2022-10-19T14:58:25.454Z,67.11
2022-10-19T15:01:36.939Z,66.99
2022-10-19T15:04:45.499Z,67.75
2022-10-19T15:07:54.717Z,69.03
2022-10-19T15:11:03.062Z,70.49
2022-10-19T15:14:16.853Z,71.30
2022-10-19T15:17:30.268Z,72.28
2022-10-19T15:20:49.486Z,73.27
2022-10-19T15:24:28.221Z,74.28
2022-10-19T15:27:39.689Z,75.21
2022-10-19T15:31:00.903Z,75.59
2022-10-19T15:34:28.826Z,75.67
2022-10-19T15:37:45.743Z,76.22
2022-10-19T15:41:00.223Z,76.79
2022-10-19T15:44:31.881Z,76.83
2022-10-19T15:48:24.993Z,77.55
2022-10-19T15:51:48.787Z,77.07
2022-10-19T15:54:59.993Z,76.12
2022-10-19T15:58:11.173Z,75.87
2022-10-19T16:01:22.578Z,76.32
2022-10-19T16:04:31.172Z,76.81
2022-10-19T16:07:42.664Z,77.49
2022-10-19T16:10:50.966Z,77.97
2022-10-19T16:13:59.273Z,78.38
2022-10-19T16:17:07.595Z,77.58
2022-10-19T16:20:17.510Z,78.65
2022-10-19T16:23:27.918Z,79.20
2022-10-19T16:26:36.385Z,79.49
2022-10-19T16:29:45.573Z,80.23
2022-10-19T16:32:53.993Z,80.16
2022-10-19T16:36:06.445Z,80.09
2022-10-19T16:39:15.974Z,79.02
2022-10-19T16:42:29.667Z,79.39
2022-10-19T16:45:43.581Z,78.47
2022-10-19T16:48:51.969Z,77.83
2022-10-19T16:52:01.622Z,77.10
2022-10-19T16:55:12.580Z,76.68
2022-10-19T16:58:21.073Z,76.97
2022-10-19T17:01:31.183Z,76.22
2022-10-19T17:04:41.602Z,76.33
2022-10-19T17:07:50.086Z,75.89
2022-10-19T17:11:10.419Z,75.30
2022-10-19T17:14:18.710Z,75.93
2022-10-19T17:17:27.016Z,75.51
2022-10-19T17:20:35.193Z,76.72
2022-10-19T17:23:45.226Z,75.46
2022-10-19T17:26:55.651Z,75.40
2022-10-19T17:30:04.573Z,75.81
2022-10-19T17:33:12.871Z,75.53
2022-10-19T17:36:25.273Z,76.18
2022-10-19T17:39:33.526Z,75.72
2022-10-19T17:42:43.200Z,75.84
2022-10-19T17:45:59.870Z,75.90
2022-10-19T17:49:08.930Z,75.26
2022-10-19T17:52:17.391Z,76.17
2022-10-19T17:55:27.102Z,75.78
2022-10-19T17:58:39.859Z,75.49
2022-10-19T18:01:48.461Z,75.12
2022-10-19T18:04:56.797Z,75.56
2022-10-19T18:08:05.146Z,75.51
2022-10-19T18:11:17.615Z,75.73
2022-10-19T18:14:27.408Z,75.36
2022-10-19T18:17:36.118Z,76.15
2022-10-19T18:20:44.648Z,76.14
2022-10-19T18:23:54.380Z,75.91
2022-10-19T18:27:02.825Z,76.80
2022-10-19T18:30:13.444Z,77.10
2022-10-19T18:33:23.326Z,77.16
2022-10-19T18:36:32.866Z,77.88
2022-10-19T18:39:42.556Z,77.99
2022-10-19T18:42:53.884Z,78.29
2022-10-19T18:46:03.486Z,79.23
2022-10-19T18:49:13.548Z,79.72
2022-10-19T18:52:21.985Z,80.31
2022-10-19T18:55:31.171Z,80.61
2022-10-19T18:58:40.502Z,80.88
2022-10-19T19:01:50.672Z,80.81
2022-10-19T19:04:59.166Z,81.45
2022-10-19T19:08:07.533Z,81.44
2022-10-19T19:11:19.082Z,81.85
2022-10-19T19:14:27.700Z,82.23
2022-10-19T19:17:38.088Z,82.00
2022-10-19T19:20:46.403Z,81.34
2022-10-19T19:23:57.588Z,82.15
2022-10-19T19:27:05.902Z,82.43
2022-10-19T19:30:14.206Z,82.45
2022-10-19T19:33:23.788Z,83.48
2022-10-19T19:36:32.057Z,83.10
2022-10-19T19:39:41.293Z,83.79
2022-10-19T19:42:49.613Z,83.76
2022-10-19T19:46:01.966Z,84.68
2022-10-19T19:49:14.784Z,84.45
2022-10-19T19:52:23.092Z,84.77
2022-10-19T19:55:38.240Z,84.43
2022-10-19T19:58:48.633Z,84.88
2022-10-19T20:01:56.903Z,84.52
2022-10-19T20:05:06.959Z,84.58
2022-10-19T20:08:15.275Z,85.03
2022-10-19T20:11:25.368Z,85.47
2022-10-19T20:14:33.770Z,85.09
2022-10-19T20:17:42.644Z,85.58
2022-10-19T20:20:52.822Z,86.38
2022-10-19T20:24:03.586Z,86.29
2022-10-19T20:31:07.881Z,86.56
2022-10-19T20:34:20.537Z,86.53
2022-10-19T20:37:32.808Z,86.44
2022-10-19T20:40:41.653Z,86.66
2022-10-19T20:43:51.009Z,86.34
2022-10-19T20:46:59.344Z,86.41
2022-10-19T20:50:09.937Z,86.19
2022-10-19T20:53:19.973Z,86.73
2022-10-19T20:56:31.867Z,86.88
2022-10-19T20:59:40.134Z,86.40
2022-10-19T21:02:48.384Z,86.83
2022-10-19T21:05:56.616Z,87.27
2022-10-19T21:09:06.646Z,87.75
2022-10-19T21:12:15.650Z,86.99
2022-10-19T21:15:23.845Z,87.45
2022-10-19T21:18:32.093Z,86.49
2022-10-19T21:21:43.742Z,86.25
2022-10-19T21:24:53.812Z,86.70
2022-10-19T21:28:02.141Z,87.33
2022-10-19T21:31:11.444Z,87.04
2022-10-19T21:34:22.356Z,87.33
2022-10-19T21:37:30.944Z,87.57
2022-10-19T21:40:40.501Z,87.41
2022-10-19T21:43:49.336Z,87.63
2022-10-19T21:46:57.704Z,87.12
2022-10-19T21:50:07.433Z,87.18
2022-10-19T21:53:20.604Z,87.38
2022-10-19T21:56:30.617Z,87.67
2022-10-19T21:59:39.052Z,87.11
2022-10-19T22:02:49.490Z,87.31
2022-10-19T22:05:57.674Z,87.66
2022-10-19T22:09:08.900Z,87.56
2022-10-19T22:12:18.682Z,87.86
2022-10-19T22:15:26.846Z,88.52
2022-10-19T22:18:35.818Z,88.15
2022-10-19T22:21:44.588Z,87.67
2022-10-19T22:24:52.931Z,87.75
2022-10-19T22:28:03.405Z,88.47
2022-10-19T22:31:13.157Z,88.02
2022-10-19T22:34:21.712Z,88.74
2022-10-19T22:37:29.973Z,87.60
2022-10-19T22:40:38.341Z,88.19
2022-10-19T22:43:51.998Z,88.30
2022-10-19T22:47:00.458Z,88.32
2022-10-19T22:50:11.809Z,88.46
2022-10-19T22:53:23.409Z,88.24
2022-10-19T22:56:31.967Z,88.78
2022-10-19T22:59:41.521Z,88.39
2022-10-19T23:02:49.759Z,88.79
2022-10-19T23:05:58.257Z,88.01
2022-10-19T23:09:06.554Z,87.57
2022-10-19T23:12:15.118Z,86.64
2022-10-19T23:15:24.724Z,87.01
2022-10-19T23:18:33.595Z,87.25
2022-10-19T23:21:42.051Z,88.05
2022-10-19T23:24:50.371Z,87.70
2022-10-19T23:27:58.527Z,88.41
2022-10-19T23:31:11.504Z,86.93
2022-10-19T23:34:20.004Z,86.60
2022-10-19T23:37:28.260Z,86.64
2022-10-19T23:40:36.716Z,86.42
2022-10-19T23:43:45.500Z,86.43
2022-10-19T23:46:55.099Z,86.26
2022-10-19T23:50:03.595Z,86.55
2022-10-19T23:53:12.238Z,87.23
2022-10-19T23:56:23.516Z,87.15
2022-10-19T23:59:31.989Z,86.82
